createdAt,value
2023-01-18T00:03:39.639Z,96123.17
2023-01-18T00:08:43.269Z,96120.54
2023-01-18T00:13:47.422Z,96122.42
2023-01-18T00:18:55.781Z,96119.04
2023-01-18T00:23:59.307Z,96120.77
2023-01-18T00:29:02.581Z,96123.30
2023-01-18T00:34:06.200Z,96121.27
2023-01-18T00:39:09.669Z,96121.84
2023-01-18T00:44:12.855Z,96125.41
2023-01-18T00:49:16.240Z,96121.88
2023-01-18T00:54:19.579Z,96114.47
2023-01-18T00:59:22.971Z,96122.25
2023-01-18T01:04:44.660Z,96107.81
2023-01-18T01:09:47.879Z,96090.11
2023-01-18T01:15:09.434Z,96093.52
2023-01-18T01:20:31.183Z,96106.98
2023-01-18T01:25:55.465Z,96083.33
2023-01-18T01:31:00.651Z,96070.45
2023-01-18T01:36:05.166Z,96044.86
2023-01-18T01:41:20.575Z,96030.84
2023-01-18T01:46:23.763Z,96031.70
2023-01-18T01:51:27.011Z,96046.00
2023-01-18T01:56:31.371Z,96063.23
2023-01-18T02:01:35.062Z,96058.11
2023-01-18T02:06:40.180Z,96046.33
2023-01-18T02:11:43.768Z,96025.56
2023-01-18T02:17:14.406Z,95990.09
2023-01-18T02:22:45.237Z,95953.69
2023-01-18T02:28:15.562Z,95937.63
2023-01-18T02:33:22.122Z,95970.21
2023-01-18T02:38:48.740Z,95963.54
2023-01-18T02:44:12.460Z,95976.56
2023-01-18T02:49:23.474Z,95962.33
2023-01-18T02:54:26.756Z,95967.02
2023-01-18T02:59:35.257Z,95977.68
2023-01-18T03:04:54.656Z,95997.46
2023-01-18T03:09:59.618Z,96014.05
2023-01-18T03:15:05.990Z,96008.17
2023-01-18T03:20:15.726Z,96002.83
2023-01-18T03:25:21.759Z,96010.15
2023-01-18T03:30:43.547Z,96007.93
2023-01-18T03:35:48.836Z,95995.63
2023-01-18T03:40:52.168Z,95989.77
2023-01-18T03:45:56.261Z,95989.88
2023-01-18T03:51:23.658Z,95983.71
2023-01-18T03:56:54.391Z,95974.86
2023-01-18T04:01:58.007Z,95938.29
2023-01-18T04:07:01.668Z,95924.02
2023-01-18T04:12:05.429Z,95922.67
2023-01-18T04:17:08.890Z,95933.39
2023-01-18T04:22:12.527Z,95922.05
2023-01-18T04:27:15.893Z,95923.41
2023-01-18T04:32:19.231Z,95926.95
2023-01-18T04:37:31.231Z,95917.95
2023-01-18T04:42:34.942Z,95921.65
2023-01-18T04:47:38.791Z,95925.86
2023-01-18T04:52:42.349Z,95935.66
2023-01-18T04:57:45.881Z,95939.64
2023-01-18T05:02:50.042Z,95931.09
2023-01-18T05:07:53.462Z,95932.49
2023-01-18T05:12:57.396Z,95935.02
2023-01-18T05:18:01.688Z,95948.83
2023-01-18T05:23:10.894Z,95960.41
2023-01-18T05:28:14.291Z,95952.33
2023-01-18T05:33:18.277Z,95947.40
2023-01-18T05:38:23.052Z,95942.80
2023-01-18T05:43:28.059Z,95960.45
2023-01-18T05:48:31.383Z,95941.86
2023-01-18T05:53:34.914Z,95925.27
2023-01-18T05:58:39.100Z,95916.66
2023-01-18T06:03:42.431Z,95931.81
2023-01-18T06:08:45.649Z,95933.01
2023-01-18T06:13:49.125Z,95949.35
2023-01-18T06:18:52.334Z,95951.48
2023-01-18T06:23:55.753Z,95940.36
2023-01-18T06:28:59.016Z,95956.27
2023-01-18T06:34:09.409Z,95960.13
2023-01-18T06:39:13.364Z,95964.41
2023-01-18T06:44:16.671Z,95960.39
2023-01-18T06:49:19.973Z,95946.48
2023-01-18T06:54:23.237Z,95951.41
2023-01-18T06:59:28.646Z,95959.33
2023-01-18T07:04:35.526Z,95970.30
2023-01-18T07:09:39.293Z,95985.63
2023-01-18T07:14:42.977Z,95992.32
2023-01-18T07:19:46.133Z,95984.92
2023-01-18T07:24:49.645Z,95981.62
2023-01-18T07:29:52.955Z,95982.84
2023-01-18T07:34:58.566Z,95991.44
2023-01-18T07:40:03.310Z,95999.83
2023-01-18T07:45:09.547Z,96002.70
2023-01-18T07:50:14.208Z,96008.62
2023-01-18T07:55:17.519Z,96017.76
2023-01-18T08:00:21.331Z,96007.91
2023-01-18T08:05:26.941Z,96003.72
2023-01-18T08:10:32.937Z,95997.80
2023-01-18T08:15:38.177Z,95988.65
2023-01-18T08:20:48.532Z,95978.23
2023-01-18T08:26:13.835Z,95982.34
2023-01-18T08:31:22.349Z,95997.31
2023-01-18T08:36:26.135Z,96007.53
2023-01-18T08:41:30.729Z,96012.03
2023-01-18T08:46:37.451Z,96010.84
2023-01-18T08:51:43.761Z,96021.67
2023-01-18T08:56:52.799Z,96024.27
2023-01-18T09:01:56.410Z,96027.84
2023-01-18T09:07:08.733Z,96042.05
2023-01-18T09:12:13.184Z,96050.81
2023-01-18T09:17:19.443Z,96053.58
2023-01-18T09:22:25.820Z,96045.00
2023-01-18T09:27:30.389Z,96038.94
2023-01-18T09:32:33.611Z,96040.57
2023-01-18T09:37:38.088Z,96053.31
2023-01-18T09:42:44.829Z,96052.55
2023-01-18T09:47:49.951Z,96051.91
2023-01-18T09:52:56.230Z,96070.23
2023-01-18T09:58:19.416Z,96087.64
2023-01-18T10:03:52.696Z,96099.25
2023-01-18T10:09:01.104Z,96095.81
2023-01-18T10:14:15.810Z,96090.46
2023-01-18T10:19:25.080Z,96094.64
2023-01-18T10:24:35.602Z,96101.16
2023-01-18T10:29:58.050Z,96113.19
2023-01-18T10:35:03.468Z,96123.77
2023-01-18T10:40:10.389Z,96120.22
2023-01-18T10:45:21.361Z,96132.11
2023-01-18T10:50:43.283Z,96146.41
2023-01-18T10:56:02.276Z,96152.73
2023-01-18T11:01:06.932Z,96158.70
2023-01-18T11:06:17.147Z,96168.03
2023-01-18T11:11:46.814Z,96170.60
2023-01-18T11:17:11.594Z,96176.05
2023-01-18T11:22:17.535Z,96186.67
2023-01-18T11:27:23.290Z,96197.73
2023-01-18T11:32:27.484Z,96210.19
2023-01-18T11:37:43.680Z,96214.81
2023-01-18T11:42:50.005Z,96222.56
2023-01-18T11:48:30.926Z,96218.51
2023-01-18T11:53:48.058Z,96234.27
2023-01-18T11:58:53.169Z,96239.99
2023-01-18T12:04:45.021Z,96250.23
2023-01-18T12:09:56.837Z,96259.00
2023-01-18T12:15:18.919Z,96278.02
2023-01-18T12:20:39.267Z,96291.85
2023-01-18T12:26:11.336Z,96304.25
2023-01-18T12:31:26.463Z,96317.63
2023-01-18T12:36:56.274Z,96326.71
2023-01-18T12:42:06.115Z,96332.27
2023-01-18T12:47:10.851Z,96340.50
2023-01-18T12:52:19.024Z,96354.62
2023-01-18T12:57:23.575Z,96372.11
2023-01-18T13:02:57.391Z,96367.21
2023-01-18T13:08:10.585Z,96387.20
2023-01-18T13:13:21.491Z,96412.27
2023-01-18T13:18:50.974Z,96432.66
2023-01-18T13:24:26.371Z,96439.81
2023-01-18T13:29:30.628Z,96460.02
2023-01-18T13:34:47.390Z,96480.98
2023-01-18T13:45:14.903Z,96509.17
2023-01-18T13:50:44.439Z,96527.55
2023-01-18T13:56:05.471Z,96532.45
2023-01-18T14:01:51.495Z,96540.64
2023-01-18T14:07:30.416Z,96564.29
2023-01-18T14:12:52.227Z,96580.34
2023-01-18T14:17:59.528Z,96584.38
2023-01-18T14:23:12.459Z,96599.31
2023-01-18T14:28:19.100Z,96610.77
2023-01-18T14:33:33.686Z,96625.68
2023-01-18T14:38:37.073Z,96635.65
2023-01-18T14:43:48.157Z,96642.20
2023-01-18T14:48:54.446Z,96658.28
2023-01-18T14:54:01.643Z,96668.91
2023-01-18T14:59:27.825Z,96672.30
2023-01-18T15:04:39.287Z,96688.60
2023-01-18T15:09:45.723Z,96697.27
2023-01-18T15:14:50.753Z,96702.11
2023-01-18T15:19:57.251Z,96709.60
2023-01-18T15:25:01.232Z,96727.28
2023-01-18T15:30:14.586Z,96739.63
2023-01-18T15:35:19.641Z,96746.73
2023-01-18T15:40:36.560Z,96754.36
2023-01-18T15:45:49.825Z,96759.80
2023-01-18T15:50:58.261Z,96769.30
2023-01-18T15:56:07.164Z,96776.01
2023-01-18T16:01:13.637Z,96775.27
2023-01-18T16:06:23.720Z,96772.52
2023-01-18T16:11:29.978Z,96778.35
2023-01-18T16:16:39.822Z,96786.60
2023-01-18T16:21:50.551Z,96797.29
2023-01-18T16:26:55.724Z,96808.69
2023-01-18T16:32:39.431Z,96826.90
2023-01-18T16:37:46.373Z,96846.98
2023-01-18T16:43:07.951Z,96861.77
2023-01-18T16:48:20.455Z,96871.66
2023-01-18T16:53:24.942Z,96879.08
2023-01-18T16:58:29.278Z,96885.35
2023-01-18T17:03:38.768Z,96897.86
2023-01-18T17:08:44.187Z,96907.20
2023-01-18T17:13:48.002Z,96916.33
2023-01-18T17:18:51.377Z,96917.30
2023-01-18T17:23:55.702Z,96920.40
2023-01-18T17:28:59.200Z,96931.54
2023-01-18T17:34:02.610Z,96934.46
2023-01-18T17:39:07.037Z,96941.37
2023-01-18T17:44:10.755Z,96956.45
2023-01-18T17:49:14.162Z,96974.92
2023-01-18T17:54:21.021Z,96995.18
2023-01-18T17:59:45.273Z,96999.92
2023-01-18T18:04:50.613Z,97004.30
2023-01-18T18:10:00.320Z,97000.91
2023-01-18T18:15:07.395Z,97003.33
2023-01-18T18:20:13.776Z,97012.40
2023-01-18T18:25:17.428Z,97024.75
2023-01-18T18:30:24.523Z,97036.38
2023-01-18T18:35:30.924Z,97052.81
2023-01-18T18:40:37.729Z,97065.58
2023-01-18T18:45:50.384Z,97071.47
2023-01-18T18:50:55.839Z,97091.20
2023-01-18T18:56:00.218Z,97096.42
2023-01-18T19:01:05.226Z,97094.23
2023-01-18T19:06:11.112Z,97092.15
2023-01-18T19:11:16.561Z,97093.74
2023-01-18T19:16:20.228Z,97111.88
2023-01-18T19:21:26.628Z,97133.38
2023-01-18T19:26:30.042Z,97144.63
2023-01-18T19:31:33.427Z,97151.09
2023-01-18T19:36:43.304Z,97155.23
2023-01-18T19:41:53.016Z,97160.52
2023-01-18T19:47:03.848Z,97160.98
2023-01-18T19:52:09.208Z,97171.17
2023-01-18T19:57:13.470Z,97189.64
2023-01-18T20:02:17.365Z,97202.40
2023-01-18T20:07:24.301Z,97213.35
2023-01-18T20:12:31.674Z,97224.65
2023-01-18T20:17:35.077Z,97233.02
2023-01-18T20:22:38.915Z,97232.16
2023-01-18T20:27:42.268Z,97226.13
2023-01-18T20:32:45.529Z,97224.23
2023-01-18T20:37:49.034Z,97220.21
2023-01-18T20:42:54.315Z,97215.86
2023-01-18T20:47:58.610Z,97213.11
2023-01-18T20:53:02.695Z,97210.62
2023-01-18T20:58:06.610Z,97231.73
2023-01-18T21:03:15.705Z,97247.38
2023-01-18T21:08:19.928Z,97264.10
2023-01-18T21:13:25.026Z,97270.30
2023-01-18T21:18:29.201Z,97277.02
2023-01-18T21:23:40.226Z,97285.55
2023-01-18T21:28:43.877Z,97281.42
2023-01-18T21:33:47.258Z,97292.14
2023-01-18T21:38:50.951Z,97291.10
2023-01-18T21:44:13.098Z,97289.82
2023-01-18T21:50:00.934Z,97299.45
2023-01-18T21:54:58.600Z,97306.13
2023-01-18T22:00:03.122Z,97309.92
2023-01-18T22:05:10.689Z,97343.18
2023-01-18T22:10:15.588Z,97351.14
2023-01-18T22:15:22.012Z,97352.48
2023-01-18T22:20:25.795Z,97364.25
2023-01-18T22:25:29.231Z,97366.80
2023-01-18T22:30:32.488Z,97359.70
2023-01-18T22:35:36.775Z,97347.10
2023-01-18T22:40:40.555Z,97370.97
2023-01-18T22:45:43.941Z,97384.35
2023-01-18T22:50:54.788Z,97391.42
2023-01-18T22:56:24.563Z,97392.36
2023-01-18T23:01:31.553Z,97402.25
2023-01-18T23:06:48.285Z,97410.21
2023-01-18T23:11:51.904Z,97409.32
2023-01-18T23:17:13.755Z,97400.11
2023-01-18T23:26:17.905Z,97405.38
2023-01-18T23:31:22.043Z,97410.05
2023-01-18T23:36:25.503Z,97417.36
2023-01-18T23:41:47.434Z,97418.36
2023-01-18T23:47:09.451Z,97405.20
2023-01-18T23:52:31.459Z,97399.95
2023-01-18T23:57:36.971Z,97395.52
